Time;durP1;ratioP1;P1;durP2;ratioP2;P2;SDS_P1;SDS_P2;PMS_P1;PMS_P2;Temp;Humidity;BMP_temperature;BMP_pressure;BME280_temperature;BME280_humidity;BME280_pressure;Samples;Min_cycle;Max_cycle;Signal;HPM_P1;HPM_P2
2022/10/20 00:00:28;;;;;;;1.02;1.02;;;11.70;78.40;;;;;;5075578;28;20114;-60
2022/10/20 00:02:54;;;;;;;1.08;1.08;;;11.60;78.40;;;;;;5069693;28;20101;-60
2022/10/20 00:05:20;;;;;;;0.95;0.95;;;11.60;78.40;;;;;;5076428;28;20135;-60
2022/10/20 00:07:45;;;;;;;0.80;0.80;;;11.60;78.50;;;;;;5072718;28;20016;-61
2022/10/20 00:10:11;;;;;;;1.20;1.10;;;11.60;78.60;;;;;;5073412;28;20415;-60
2022/10/20 00:12:37;;;;;;;1.35;1.30;;;11.50;78.50;;;;;;5074796;28;20071;-60
2022/10/20 00:15:03;;;;;;;1.42;1.00;;;11.50;78.50;;;;;;5073306;28;20499;-60
2022/10/20 00:17:28;;;;;;;1.15;1.15;;;11.50;78.80;;;;;;5075095;28;20108;-60
2022/10/20 00:19:54;;;;;;;0.93;0.93;;;11.40;79.00;;;;;;5073279;28;20123;-61
2022/10/20 00:22:20;;;;;;;1.15;1.15;;;11.40;79.30;;;;;;5086060;28;20218;-60
2022/10/20 00:24:45;;;;;;;1.20;1.10;;;11.40;79.50;;;;;;5080023;28;20032;-60
2022/10/20 00:27:11;;;;;;;1.15;1.13;;;11.30;79.70;;;;;;5087614;28;20028;-60
2022/10/20 00:29:37;;;;;;;1.48;0.90;;;11.30;80.00;;;;;;5083332;28;20021;-60
2022/10/20 00:32:02;;;;;;;1.08;1.08;;;11.20;80.20;;;;;;5075618;28;20035;-60
2022/10/20 00:34:28;;;;;;;1.00;1.00;;;11.20;80.30;;;;;;5081193;28;20028;-60
2022/10/20 00:36:54;;;;;;;0.90;0.90;;;11.10;80.60;;;;;;5089870;28;20111;-60
2022/10/20 00:39:19;;;;;;;0.98;0.98;;;11.00;81.00;;;;;;5090542;28;20035;-60
2022/10/20 00:41:45;;;;;;;1.00;1.00;;;11.00;81.40;;;;;;5085581;28;20021;-60
2022/10/20 00:44:44;;;;;;;1.50;1.15;;;10.90;81.40;;;;;;5075969;28;20060;-60
2022/10/20 00:47:38;;;;;;;1.38;1.27;;;10.90;81.40;;;;;;5066494;28;20257;-60
2022/10/20 00:50:12;;;;;;;0.95;0.95;;;10.80;81.30;;;;;;5077403;28;20103;-60
2022/10/20 00:52:39;;;;;;;1.30;0.93;;;10.70;81.40;;;;;;5082851;28;20463;-60
2022/10/20 00:55:07;;;;;;;0.90;0.90;;;10.60;81.50;;;;;;5079016;28;20073;-60
2022/10/20 00:57:33;;;;;;;0.75;0.75;;;10.60;81.20;;;;;;5082602;28;20088;-60
2022/10/20 00:59:59;;;;;;;0.95;0.90;;;10.50;81.10;;;;;;5077665;28;20032;-60
2022/10/20 01:02:25;;;;;;;0.90;0.90;;;10.40;81.40;;;;;;5078904;28;20073;-60
2022/10/20 01:04:50;;;;;;;1.13;1.13;;;10.30;81.40;;;;;;5078513;28;20085;-60
2022/10/20 01:07:16;;;;;;;0.85;0.85;;;10.30;81.20;;;;;;5078131;28;20020;-59
2022/10/20 01:09:42;;;;;;;1.00;0.98;;;10.20;81.00;;;;;;5078604;28;20024;-60
2022/10/20 01:12:26;;;;;;;1.23;1.08;;;10.20;81.00;;;;;;5081254;28;20035;-60
2022/10/20 01:15:07;;;;;;;1.05;1.05;;;10.10;80.70;;;;;;5080055;28;20028;-60
2022/10/20 01:17:46;;;;;;;1.40;1.30;;;10.00;80.60;;;;;;5079322;28;20021;-60
2022/10/20 01:21:02;;;;;;;1.42;1.33;;;9.90;80.50;;;;;;5078135;28;20032;-60
2022/10/20 01:23:45;;;;;;;1.83;1.48;;;9.80;80.60;;;;;;5069954;28;20086;-60
2022/10/20 01:26:30;;;;;;;1.58;1.52;;;9.80;81.00;;;;;;5071344;28;20032;-60
2022/10/20 01:29:23;;;;;;;1.70;1.60;;;9.70;80.90;;;;;;5075255;28;20066;-60
2022/10/20 01:32:09;;;;;;;2.05;1.83;;;9.70;81.40;;;;;;5070693;28;20031;-60
2022/10/20 01:34:46;;;;;;;1.75;1.65;;;9.60;81.10;;;;;;5076003;28;20032;-60
2022/10/20 01:37:23;;;;;;;1.80;1.70;;;9.60;81.70;;;;;;5093704;28;20502;-60
2022/10/20 01:39:53;;;;;;;2.00;1.90;;;9.50;80.30;;;;;;5077961;28;20387;-61
2022/10/20 01:42:23;;;;;;;2.35;2.15;;;9.40;80.40;;;;;;5072480;28;20598;-60
2022/10/20 01:44:54;;;;;;;2.53;2.10;;;9.40;80.90;;;;;;5076140;28;20375;-60
2022/10/20 01:47:23;;;;;;;2.65;2.20;;;9.30;81.30;;;;;;5087396;28;20114;-60
2022/10/20 01:49:50;;;;;;;1.88;1.77;;;9.30;81.70;;;;;;5088582;28;20450;-60
2022/10/20 01:52:16;;;;;;;2.00;1.90;;;9.30;81.90;;;;;;5093647;28;20020;-60
2022/10/20 01:54:42;;;;;;;1.85;1.75;;;9.30;81.90;;;;;;5076216;28;20020;-60
2022/10/20 01:57:14;;;;;;;1.88;1.77;;;9.30;81.90;;;;;;5078567;28;20047;-60
2022/10/20 02:00:09;;;;;;;1.65;1.55;;;9.30;81.80;;;;;;5078473;28;20062;-60
2022/10/20 02:03:04;;;;;;;3.38;1.73;;;9.30;81.60;;;;;;5074364;28;20530;-60
2022/10/20 02:05:41;;;;;;;1.60;1.58;;;9.20;81.40;;;;;;5077435;28;20028;-60
2022/10/20 02:08:20;;;;;;;1.58;1.48;;;9.10;81.00;;;;;;5080113;28;20387;-60
2022/10/20 02:10:49;;;;;;;1.60;1.50;;;9.10;80.90;;;;;;5078775;28;20097;-60
2022/10/20 02:13:18;;;;;;;1.55;1.45;;;9.10;81.20;;;;;;5078230;28;20066;-60
2022/10/20 02:15:49;;;;;;;1.60;1.50;;;9.10;81.40;;;;;;5079679;28;20480;-60
2022/10/20 02:18:19;;;;;;;1.10;1.10;;;9.00;81.60;;;;;;5077873;28;20028;-59
2022/10/20 02:20:49;;;;;;;1.35;1.33;;;9.00;81.70;;;;;;5089660;28;20047;-60
2022/10/20 02:23:16;;;;;;;1.30;1.20;;;9.00;81.70;;;;;;5078414;28;20025;-60
2022/10/20 02:25:42;;;;;;;1.50;1.50;;;9.00;81.80;;;;;;5083805;28;20020;-60
2022/10/20 02:28:10;;;;;;;1.40;1.30;;;9.00;81.90;;;;;;5090718;28;20028;-59
2022/10/20 02:30:37;;;;;;;2.30;1.30;;;9.00;81.90;;;;;;5083629;28;20031;-60
2022/10/20 02:33:03;;;;;;;1.40;1.30;;;9.10;81.90;;;;;;5077048;28;20934;-60
2022/10/20 02:35:31;;;;;;;1.80;1.70;;;9.00;81.50;;;;;;5092388;28;20522;-59
2022/10/20 02:37:57;;;;;;;3.03;2.72;;;9.00;81.30;;;;;;5092603;28;20058;-60
2022/10/20 02:40:23;;;;;;;2.45;2.35;;;9.00;81.20;;;;;;5085683;28;20028;-60
2022/10/20 02:42:49;;;;;;;2.63;2.42;;;9.00;80.90;;;;;;5084266;28;20020;-60
2022/10/20 02:45:15;;;;;;;2.28;2.17;;;8.90;80.90;;;;;;5084629;28;20024;-60
2022/10/20 02:47:41;;;;;;;2.95;2.75;;;8.90;80.90;;;;;;5077433;28;20100;-59
2022/10/20 02:50:07;;;;;;;2.60;2.40;;;8.80;80.70;;;;;;5076474;28;20111;-60
2022/10/20 02:52:35;;;;;;;2.60;2.40;;;8.80;80.40;;;;;;5072595;28;20021;-60
2022/10/20 02:55:01;;;;;;;2.30;2.17;;;8.70;80.20;;;;;;5081542;28;20463;-59
2022/10/20 02:57:26;;;;;;;3.28;2.70;;;8.60;80.10;;;;;;5084109;28;20024;-60
2022/10/20 02:59:52;;;;;;;2.92;2.10;;;8.60;80.10;;;;;;5080502;28;20078;-60
2022/10/20 03:02:18;;;;;;;1.90;1.80;;;8.50;80.10;;;;;;5080101;28;20028;-60
2022/10/20 03:04:43;;;;;;;2.30;1.90;;;8.50;80.10;;;;;;5080661;28;20097;-59
2022/10/20 03:07:10;;;;;;;2.75;2.00;;;8.50;79.60;;;;;;5073971;28;20025;-60
2022/10/20 03:09:36;;;;;;;1.88;1.77;;;8.40;79.10;;;;;;5088737;28;20544;-60
2022/10/20 03:12:02;;;;;;;1.90;1.80;;;8.40;78.70;;;;;;5083056;28;20032;-59
2022/10/20 03:14:28;;;;;;;1.77;1.67;;;8.30;78.60;;;;;;5084575;28;20035;-58
2022/10/20 03:16:53;;;;;;;1.90;1.80;;;8.20;79.10;;;;;;5084224;28;20529;-59
2022/10/20 03:19:19;;;;;;;1.60;1.50;;;8.20;79.20;;;;;;5087006;28;20031;-60
2022/10/20 03:21:45;;;;;;;1.58;1.48;;;8.20;78.90;;;;;;5071556;28;20349;-60
2022/10/20 03:24:11;;;;;;;2.13;1.92;;;8.10;78.60;;;;;;5080613;28;20096;-59
2022/10/20 03:26:37;;;;;;;1.92;1.77;;;8.10;78.50;;;;;;5085204;28;20523;-59
2022/10/20 03:29:02;;;;;;;1.75;1.58;;;8.10;78.80;;;;;;5085520;28;20077;-60
2022/10/20 03:31:28;;;;;;;2.30;2.10;;;8.10;78.80;;;;;;5072566;28;20024;-60
2022/10/20 03:33:54;;;;;;;1.50;1.40;;;8.00;78.60;;;;;;5071380;28;20035;-60
2022/10/20 03:36:20;;;;;;;1.50;1.40;;;8.00;78.70;;;;;;5074145;28;20035;-60
2022/10/20 03:38:45;;;;;;;1.70;1.60;;;7.90;78.60;;;;;;5079437;28;20395;-59
2022/10/20 03:41:11;;;;;;;1.70;1.60;;;8.00;78.40;;;;;;5071034;28;20368;-60
2022/10/20 03:43:40;;;;;;;1.80;1.70;;;7.90;78.50;;;;;;5071203;28;20028;-59
2022/10/20 03:46:10;;;;;;;1.80;1.70;;;7.90;78.20;;;;;;5071150;28;20422;-60
2022/10/20 03:48:37;;;;;;;1.73;1.63;;;7.90;78.10;;;;;;5071571;28;20025;-59
2022/10/20 03:51:04;;;;;;;1.60;1.60;;;7.90;78.00;;;;;;5071622;28;20035;-60
2022/10/20 03:53:29;;;;;;;1.80;1.70;;;7.80;77.80;;;;;;5071708;28;20034;-60
2022/10/20 03:55:55;;;;;;;1.98;1.88;;;7.80;77.70;;;;;;5070836;28;20031;-60
2022/10/20 03:58:21;;;;;;;1.88;1.77;;;7.80;77.50;;;;;;5071527;28;20486;-60
2022/10/20 04:00:47;;;;;;;2.50;1.80;;;7.80;77.70;;;;;;5069936;28;20075;-59
2022/10/20 04:03:13;;;;;;;1.75;1.67;;;7.80;77.70;;;;;;5070523;28;20028;-59
2022/10/20 04:05:39;;;;;;;2.00;1.90;;;7.80;78.10;;;;;;5067852;28;20034;-60
2022/10/20 04:08:05;;;;;;;2.00;1.90;;;7.80;78.40;;;;;;5076740;28;20048;-59
2022/10/20 04:10:31;;;;;;;2.10;2.00;;;7.80;78.20;;;;;;5089694;28;20062;-59
2022/10/20 04:12:57;;;;;;;1.90;1.80;;;7.80;78.20;;;;;;5085677;28;20031;-60
2022/10/20 04:15:23;;;;;;;2.10;1.95;;;7.80;77.90;;;;;;5078677;28;20024;-60
2022/10/20 04:17:49;;;;;;;1.77;1.67;;;7.90;77.30;;;;;;5084123;28;20032;-60
2022/10/20 04:20:14;;;;;;;2.13;2.00;;;7.90;77.50;;;;;;5069694;28;20046;-60
2022/10/20 04:22:40;;;;;;;1.90;1.77;;;7.90;77.30;;;;;;5071188;28;20029;-60
2022/10/20 04:25:06;;;;;;;1.98;1.88;;;7.90;77.00;;;;;;5071220;28;20097;-59
2022/10/20 04:27:32;;;;;;;2.20;2.10;;;7.80;76.70;;;;;;5071269;28;20495;-59
2022/10/20 04:29:57;;;;;;;1.98;1.88;;;7.80;76.60;;;;;;5077336;28;20021;-60
2022/10/20 04:32:23;;;;;;;1.90;1.80;;;7.80;76.50;;;;;;5070977;28;20019;-59
2022/10/20 04:34:49;;;;;;;2.00;1.90;;;7.80;76.60;;;;;;5083926;28;20056;-59
2022/10/20 04:37:14;;;;;;;1.77;1.67;;;7.80;77.00;;;;;;5070552;28;20032;-60
2022/10/20 04:39:40;;;;;;;2.20;2.00;;;7.80;77.00;;;;;;5070681;28;20027;-59
2022/10/20 04:42:06;;;;;;;2.03;1.92;;;7.70;76.90;;;;;;5070206;28;20025;-61
2022/10/20 04:44:31;;;;;;;3.35;2.33;;;7.80;77.10;;;;;;5070306;28;20016;-60
2022/10/20 04:46:57;;;;;;;2.28;2.17;;;7.80;76.80;;;;;;5078449;28;20099;-59
2022/10/20 04:49:23;;;;;;;2.08;1.98;;;7.70;76.80;;;;;;5073862;28;20034;-60
2022/10/20 04:51:48;;;;;;;2.40;2.20;;;7.70;77.00;;;;;;5072998;28;20516;-60
2022/10/20 04:54:14;;;;;;;2.10;2.00;;;7.70;77.00;;;;;;5073195;28;20381;-60
2022/10/20 04:56:40;;;;;;;2.00;1.90;;;7.70;77.10;;;;;;5073477;28;20039;-59
2022/10/20 04:59:05;;;;;;;3.17;2.60;;;7.70;77.10;;;;;;5073346;28;20060;-59
2022/10/20 05:01:31;;;;;;;2.28;2.17;;;7.70;77.20;;;;;;5065857;28;20574;-60
2022/10/20 05:03:57;;;;;;;1.98;1.88;;;7.70;77.30;;;;;;5067174;28;20563;-60
2022/10/20 05:06:24;;;;;;;2.25;2.15;;;7.70;77.50;;;;;;5067551;28;20089;-60
2022/10/20 05:08:51;;;;;;;2.40;2.30;;;7.70;77.50;;;;;;5070874;28;20021;-60
2022/10/20 05:11:19;;;;;;;2.53;2.33;;;7.70;77.40;;;;;;5083349;28;20047;-60
2022/10/20 05:13:45;;;;;;;2.50;2.30;;;7.70;77.30;;;;;;5071002;28;20039;-60
2022/10/20 05:16:11;;;;;;;2.65;2.45;;;7.70;77.50;;;;;;5073603;28;20728;-60
2022/10/20 05:18:38;;;;;;;2.60;2.40;;;7.70;77.70;;;;;;5071952;28;20081;-60
2022/10/20 05:21:15;;;;;;;2.28;2.17;;;7.70;77.70;;;;;;5073288;28;20029;-59
2022/10/20 05:23:42;;;;;;;2.63;2.42;;;7.70;78.00;;;;;;5070696;28;20096;-59
2022/10/20 05:26:13;;;;;;;2.40;2.22;;;7.70;78.10;;;;;;5074563;28;20028;-59
2022/10/20 05:28:42;;;;;;;2.35;2.17;;;7.70;78.80;;;;;;5066817;28;20064;-59
2022/10/20 05:31:08;;;;;;;2.50;2.30;;;7.60;78.10;;;;;;5067750;28;20062;-59
2022/10/20 05:33:34;;;;;;;2.45;2.33;;;7.70;78.10;;;;;;5072019;28;20028;-60
2022/10/20 05:36:05;;;;;;;2.40;2.20;;;7.60;78.30;;;;;;5069420;28;20384;-60
2022/10/20 05:38:30;;;;;;;2.20;2.10;;;7.70;78.40;;;;;;5070773;28;20052;-60
2022/10/20 05:41:11;;;;;;;2.60;2.40;;;7.70;78.10;;;;;;5067943;28;20527;-60
2022/10/20 05:43:38;;;;;;;2.38;2.20;;;7.70;78.20;;;;;;5064482;28;20028;-61
2022/10/20 05:46:04;;;;;;;2.40;2.30;;;7.70;78.40;;;;;;5063166;28;20029;-60
2022/10/20 05:48:31;;;;;;;2.38;2.17;;;7.70;78.40;;;;;;5071679;28;20878;-60
2022/10/20 05:51:13;;;;;;;2.10;2.00;;;7.70;78.60;;;;;;5076041;28;20078;-60
2022/10/20 05:53:39;;;;;;;1.98;1.88;;;7.70;78.70;;;;;;5075606;28;20028;-60
2022/10/20 05:56:09;;;;;;;1.80;1.70;;;7.70;79.00;;;;;;5071031;28;20032;-60
2022/10/20 05:58:36;;;;;;;2.22;1.98;;;7.70;79.10;;;;;;5065888;28;20039;-61
2022/10/20 06:01:15;;;;;;;2.10;2.00;;;7.70;79.20;;;;;;5066347;28;20056;-60
2022/10/20 06:03:41;;;;;;;1.85;1.75;;;7.80;79.40;;;;;;5060772;28;20024;-60
2022/10/20 06:06:07;;;;;;;2.08;1.80;;;7.80;79.10;;;;;;5052899;28;20043;-60
2022/10/20 06:08:33;;;;;;;1.88;1.77;;;7.80;79.10;;;;;;5066919;28;20024;-61
2022/10/20 06:11:10;;;;;;;2.10;1.95;;;7.80;79.10;;;;;;5065033;28;20059;-59
2022/10/20 06:13:36;;;;;;;1.83;1.73;;;7.90;79.10;;;;;;5069322;28;20135;-59
2022/10/20 06:16:06;;;;;;;1.92;1.83;;;7.90;79.00;;;;;;5064856;28;21274;-60
2022/10/20 06:18:32;;;;;;;2.00;1.90;;;7.90;79.10;;;;;;5068639;28;20496;-60
2022/10/20 06:21:03;;;;;;;2.22;2.13;;;8.00;79.10;;;;;;5068891;28;20043;-60
2022/10/20 06:23:29;;;;;;;2.40;2.20;;;8.00;78.90;;;;;;5054324;28;20024;-60
2022/10/20 06:25:59;;;;;;;2.20;2.05;;;8.00;78.80;;;;;;5057493;28;21388;-61
2022/10/20 06:28:25;;;;;;;1.90;1.80;;;8.10;78.80;;;;;;5057128;28;20024;-59
2022/10/20 06:30:51;;;;;;;2.00;1.90;;;8.10;78.90;;;;;;5061894;28;20031;-60
2022/10/20 06:33:16;;;;;;;1.77;1.67;;;8.10;79.00;;;;;;5057743;28;20039;-60
2022/10/20 06:35:42;;;;;;;2.20;2.10;;;8.10;78.50;;;;;;5061695;28;20132;-59
2022/10/20 06:38:07;;;;;;;2.15;2.05;;;8.10;78.40;;;;;;5061464;28;20756;-60
2022/10/20 06:40:33;;;;;;;2.03;1.92;;;8.20;78.30;;;;;;5055302;28;20043;-60
2022/10/20 06:42:59;;;;;;;1.75;1.67;;;8.20;78.00;;;;;;5058175;28;20468;-59
2022/10/20 06:45:24;;;;;;;2.00;1.90;;;8.20;78.20;;;;;;5056821;28;20461;-60
2022/10/20 06:47:50;;;;;;;1.95;1.85;;;8.20;78.00;;;;;;5058754;28;20067;-60
2022/10/20 06:50:15;;;;;;;2.20;2.10;;;8.30;78.20;;;;;;5056996;28;20713;-60
2022/10/20 06:52:41;;;;;;;2.10;2.00;;;8.30;78.20;;;;;;5071027;28;20113;-60
2022/10/20 06:55:07;;;;;;;2.05;1.90;;;8.30;78.20;;;;;;5065077;28;20037;-60
2022/10/20 06:57:33;;;;;;;2.20;2.10;;;8.30;78.20;;;;;;5062525;28;20020;-60
2022/10/20 06:59:58;;;;;;;2.25;2.15;;;8.30;77.90;;;;;;5063913;28;20036;-60
2022/10/20 07:02:24;;;;;;;2.10;2.00;;;8.30;77.90;;;;;;5059336;28;20580;-60
2022/10/20 07:04:49;;;;;;;2.20;2.10;;;8.30;77.90;;;;;;5060784;28;20021;-60
2022/10/20 07:07:15;;;;;;;1.73;1.70;;;8.40;78.20;;;;;;5054952;28;20073;-60
2022/10/20 07:09:41;;;;;;;3.03;2.30;;;8.30;77.80;;;;;;5058418;28;20036;-60
2022/10/20 07:12:06;;;;;;;2.10;2.00;;;8.30;77.90;;;;;;5059517;28;20572;-60
2022/10/20 07:14:36;;;;;;;2.00;1.90;;;8.30;77.80;;;;;;5059077;28;20025;-60
2022/10/20 07:17:03;;;;;;;2.55;2.30;;;8.30;77.70;;;;;;5056498;28;20033;-60
2022/10/20 07:19:29;;;;;;;2.17;2.08;;;8.30;77.50;;;;;;5058531;28;20042;-60
2022/10/20 07:21:55;;;;;;;2.30;2.20;;;8.30;77.80;;;;;;5055577;28;20244;-60
2022/10/20 07:24:20;;;;;;;2.20;2.10;;;8.30;77.80;;;;;;5051987;28;22463;-61
2022/10/20 07:26:46;;;;;;;2.00;1.90;;;8.30;77.50;;;;;;5055465;28;20085;-60
2022/10/20 07:29:13;;;;;;;2.92;2.30;;;8.30;77.40;;;;;;5059704;28;20036;-60
2022/10/20 07:31:44;;;;;;;2.30;2.20;;;8.40;77.50;;;;;;5045649;28;20031;-60
2022/10/20 07:34:11;;;;;;;2.42;2.33;;;8.40;77.40;;;;;;5057659;28;20033;-60
2022/10/20 07:36:39;;;;;;;2.10;2.00;;;8.40;77.30;;;;;;5059130;28;20073;-60
2022/10/20 07:39:05;;;;;;;1.90;1.80;;;8.40;77.30;;;;;;5052356;28;20040;-61
2022/10/20 07:41:32;;;;;;;1.75;1.67;;;8.40;76.90;;;;;;5053590;28;20035;-60
2022/10/20 07:43:58;;;;;;;2.10;2.00;;;8.40;76.70;;;;;;5053452;28;20086;-60
2022/10/20 07:46:24;;;;;;;1.80;1.70;;;8.40;76.70;;;;;;5048875;28;21021;-60
2022/10/20 07:48:50;;;;;;;1.90;1.80;;;8.50;76.60;;;;;;5054972;28;20047;-60
2022/10/20 07:51:25;;;;;;;2.00;1.90;;;8.50;76.70;;;;;;5044124;28;20752;-60
2022/10/20 07:53:56;;;;;;;2.35;2.20;;;8.50;77.00;;;;;;5049836;28;21207;-59
2022/10/20 07:56:22;;;;;;;2.25;2.15;;;8.60;77.00;;;;;;5044761;28;20097;-60
2022/10/20 07:58:48;;;;;;;2.60;2.40;;;8.60;77.10;;;;;;5039362;28;20071;-60
2022/10/20 08:01:14;;;;;;;2.17;2.08;;;8.70;77.10;;;;;;5049954;28;20139;-60
2022/10/20 08:03:40;;;;;;;2.30;2.20;;;8.60;77.10;;;;;;5038150;28;20032;-60
2022/10/20 08:06:06;;;;;;;2.30;2.20;;;8.70;77.00;;;;;;5049119;28;20032;-60
2022/10/20 08:08:32;;;;;;;2.50;2.30;;;8.70;76.70;;;;;;5053574;28;20032;-60
2022/10/20 08:10:58;;;;;;;2.25;2.15;;;8.60;76.60;;;;;;5054034;28;20032;-60
2022/10/20 08:13:25;;;;;;;2.22;2.13;;;8.60;76.70;;;;;;5046127;28;20043;-60
2022/10/20 08:15:51;;;;;;;2.20;2.10;;;8.60;76.60;;;;;;5041241;28;20075;-59
2022/10/20 08:18:16;;;;;;;2.20;2.10;;;8.60;76.70;;;;;;5041380;28;20036;-60
2022/10/20 08:20:44;;;;;;;2.55;2.35;;;8.60;76.70;;;;;;5046038;28;20550;-60
2022/10/20 08:23:10;;;;;;;2.60;2.40;;;8.60;77.10;;;;;;5041124;28;20033;-58
2022/10/20 08:25:35;;;;;;;2.78;2.58;;;8.60;77.00;;;;;;5053395;28;21554;-58
2022/10/20 08:28:01;;;;;;;2.72;2.53;;;8.60;76.80;;;;;;5052067;28;20115;-58
2022/10/20 08:30:27;;;;;;;3.10;2.90;;;8.60;76.70;;;;;;5045908;28;20190;-59
2022/10/20 08:32:52;;;;;;;2.88;2.67;;;8.60;77.10;;;;;;5048873;28;20698;-58
2022/10/20 08:35:19;;;;;;;2.60;2.40;;;8.60;76.90;;;;;;5042269;28;20036;-58
2022/10/20 08:37:45;;;;;;;2.90;2.70;;;8.60;76.70;;;;;;5039517;28;20036;-59
2022/10/20 08:40:18;;;;;;;3.17;2.97;;;8.60;76.70;;;;;;5049541;28;20435;-58
2022/10/20 08:42:45;;;;;;;4.70;2.90;;;8.60;76.80;;;;;;5046017;28;20024;-59
2022/10/20 08:45:15;;;;;;;3.13;2.92;;;8.60;76.50;;;;;;5049260;28;20926;-58
2022/10/20 08:47:42;;;;;;;3.00;2.80;;;8.60;76.10;;;;;;5042429;28;20387;-59
2022/10/20 08:50:12;;;;;;;2.75;2.55;;;8.60;76.20;;;;;;5044936;28;20055;-60
2022/10/20 08:52:40;;;;;;;2.90;2.58;;;8.50;76.40;;;;;;5043467;28;20653;-59
2022/10/20 08:55:09;;;;;;;2.90;2.70;;;8.60;76.30;;;;;;5044093;28;20642;-60
2022/10/20 08:57:35;;;;;;;2.50;2.40;;;8.60;76.30;;;;;;5040425;28;20094;-59
2022/10/20 09:00:19;;;;;;;3.17;2.60;;;8.60;76.00;;;;;;5049768;28;20024;-58
2022/10/20 09:02:46;;;;;;;2.90;2.60;;;8.60;76.10;;;;;;5046759;28;21118;-58
2022/10/20 09:05:14;;;;;;;2.97;2.78;;;8.60;76.50;;;;;;5046154;28;20474;-58
2022/10/20 09:07:40;;;;;;;2.58;2.38;;;8.60;76.20;;;;;;5042724;28;20032;-58
2022/10/20 09:10:28;;;;;;;2.40;2.28;;;8.60;76.00;;;;;;5051319;28;20592;-58
2022/10/20 09:12:54;;;;;;;2.20;2.10;;;8.60;76.00;;;;;;5043011;28;20028;-58
2022/10/20 09:15:21;;;;;;;2.83;2.50;;;8.70;76.20;;;;;;5042233;28;20622;-59
2022/10/20 09:17:59;;;;;;;2.50;2.40;;;8.70;76.30;;;;;;5047160;28;21394;-58
2022/10/20 09:20:44;;;;;;;2.45;2.33;;;8.80;76.00;;;;;;5050118;28;20123;-59
2022/10/20 09:23:18;;;;;;;2.75;2.55;;;8.80;75.80;;;;;;5050176;28;20452;-57
2022/10/20 09:25:44;;;;;;;2.00;1.90;;;8.80;75.30;;;;;;5050550;28;20110;-59
2022/10/20 09:28:46;;;;;;;2.60;2.40;;;8.80;75.30;;;;;;5042010;28;20037;-58
2022/10/20 09:31:33;;;;;;;2.47;2.33;;;8.80;74.80;;;;;;5042459;28;20035;-57
2022/10/20 09:33:59;;;;;;;2.50;2.35;;;8.80;75.20;;;;;;5050468;28;20032;-59
2022/10/20 09:36:32;;;;;;;2.53;2.33;;;8.80;75.20;;;;;;5047860;28;20097;-59
2022/10/20 09:38:58;;;;;;;2.50;2.33;;;8.80;75.30;;;;;;5055870;28;20378;-59
2022/10/20 09:41:28;;;;;;;2.67;2.47;;;8.80;75.10;;;;;;5047380;28;20051;-59
2022/10/20 09:44:05;;;;;;;2.88;2.50;;;8.90;74.80;;;;;;5052602;28;20032;-59
2022/10/20 09:46:37;;;;;;;2.55;2.35;;;8.80;74.90;;;;;;5040057;28;20031;-58
2022/10/20 09:49:05;;;;;;;2.78;2.58;;;8.80;75.20;;;;;;5044347;28;20028;-58
2022/10/20 09:51:31;;;;;;;2.75;2.55;;;8.80;75.20;;;;;;5038594;28;20610;-58
2022/10/20 09:54:01;;;;;;;2.15;2.05;;;8.90;75.30;;;;;;5045754;28;20070;-59
2022/10/20 09:56:36;;;;;;;2.40;2.30;;;8.90;75.30;;;;;;5053547;28;20046;-59
2022/10/20 09:59:22;;;;;;;2.17;2.00;;;8.90;75.40;;;;;;5052171;28;20029;-58
2022/10/20 10:01:59;;;;;;;2.40;2.20;;;8.90;75.50;;;;;;5045714;28;20037;-59
2022/10/20 10:04:34;;;;;;;2.35;2.25;;;8.90;75.10;;;;;;5042120;28;20032;-59
2022/10/20 10:07:00;;;;;;;2.50;2.30;;;8.90;75.20;;;;;;5048295;28;20069;-58
2022/10/20 10:09:36;;;;;;;2.75;2.50;;;8.90;75.40;;;;;;5059154;28;20116;-59
2022/10/20 10:12:16;;;;;;;2.33;2.22;;;8.90;75.40;;;;;;5052143;28;20055;-58
2022/10/20 10:14:57;;;;;;;2.47;2.38;;;8.90;75.50;;;;;;5049318;28;20036;-58
2022/10/20 10:17:34;;;;;;;2.53;2.33;;;8.80;75.60;;;;;;5048160;28;20032;-59
2022/10/20 10:20:04;;;;;;;2.35;2.13;;;8.80;75.70;;;;;;5050039;28;20176;-59
2022/10/20 10:22:30;;;;;;;2.20;2.10;;;8.80;75.90;;;;;;5045581;28;20036;-59
2022/10/20 10:24:56;;;;;;;2.45;2.20;;;8.80;75.90;;;;;;5048726;28;20040;-59
2022/10/20 10:27:25;;;;;;;2.10;2.00;;;8.80;75.90;;;;;;5051795;28;20029;-59
2022/10/20 10:29:51;;;;;;;2.10;1.90;;;8.80;75.90;;;;;;5055258;28;20035;-59
2022/10/20 10:32:26;;;;;;;2.45;2.30;;;8.80;75.50;;;;;;5045261;28;20033;-59
2022/10/20 10:35:18;;;;;;;2.42;2.30;;;8.80;75.50;;;;;;5045462;28;20039;-58
2022/10/20 10:37:45;;;;;;;3.55;3.10;;;8.80;75.40;;;;;;5048149;28;20111;-58
2022/10/20 10:40:15;;;;;;;1.88;1.77;;;8.90;75.70;;;;;;5048248;28;20060;-59
2022/10/20 10:42:40;;;;;;;2.00;1.90;;;8.90;75.60;;;;;;5050435;28;20144;-59
2022/10/20 10:45:24;;;;;;;2.00;1.90;;;8.90;75.60;;;;;;5051165;28;20639;-59
2022/10/20 10:48:03;;;;;;;1.80;1.70;;;9.00;75.40;;;;;;5044126;28;20028;-58
2022/10/20 10:50:41;;;;;;;1.85;1.75;;;8.90;74.90;;;;;;5048596;28;20028;-60
2022/10/20 10:53:37;;;;;;;1.85;1.75;;;8.90;74.60;;;;;;5045647;28;20060;-59
2022/10/20 10:56:20;;;;;;;1.80;1.70;;;8.90;74.70;;;;;;5046849;28;20495;-59
2022/10/20 10:59:09;;;;;;;1.60;1.60;;;9.00;75.30;;;;;;5049653;28;20070;-61
2022/10/20 11:01:43;;;;;;;2.40;2.20;;;9.00;75.00;;;;;;5047319;28;20025;-60
2022/10/20 11:04:36;;;;;;;2.00;1.90;;;9.00;75.20;;;;;;5039811;28;20060;-60
2022/10/20 11:07:34;;;;;;;1.98;1.88;;;9.00;75.50;;;;;;5039476;28;20041;-59
2022/10/20 11:10:00;;;;;;;1.92;1.83;;;8.90;75.50;;;;;;5043500;28;20040;-60
2022/10/20 11:12:34;;;;;;;2.30;2.20;;;8.90;75.60;;;;;;5042191;28;20029;-60
2022/10/20 11:15:19;;;;;;;2.10;2.00;;;8.90;76.40;;;;;;5047426;28;20509;-60
2022/10/20 11:18:11;;;;;;;2.00;1.90;;;8.80;75.90;;;;;;5047611;28;20023;-61
2022/10/20 11:20:37;;;;;;;;;;;8.90;76.10;;;;;;5048300;28;20044;-60
2022/10/20 11:23:22;;;;;;;1.88;1.77;;;8.80;76.20;;;;;;5043700;28;20015;-60
2022/10/20 11:26:04;;;;;;;2.13;2.03;;;8.80;76.10;;;;;;5047737;28;20028;-60
2022/10/20 11:28:35;;;;;;;1.95;1.85;;;8.80;76.30;;;;;;5038431;28;20119;-60
2022/10/20 11:31:02;;;;;;;2.47;2.28;;;8.80;76.30;;;;;;5045448;28;20032;-60
2022/10/20 11:33:53;;;;;;;1.95;1.85;;;8.80;76.30;;;;;;5045013;28;20047;-60
2022/10/20 11:36:23;;;;;;;2.00;1.90;;;8.80;76.30;;;;;;5042782;28;20032;-60
2022/10/20 11:38:54;;;;;;;1.83;1.73;;;8.80;76.40;;;;;;5042334;28;20037;-61
2022/10/20 11:41:57;;;;;;;1.98;1.88;;;8.90;76.50;;;;;;5037827;28;20391;-61
2022/10/20 11:44:32;;;;;;;1.80;1.70;;;8.90;76.50;;;;;;5046737;28;22190;-60
2022/10/20 11:47:05;;;;;;;2.20;2.10;;;8.90;76.60;;;;;;5047040;28;20032;-60
2022/10/20 11:49:32;;;;;;;1.58;1.55;;;8.90;76.70;;;;;;5051978;28;20028;-59
2022/10/20 11:52:20;;;;;;;1.90;1.80;;;8.90;76.60;;;;;;5049228;28;20627;-59
2022/10/20 11:54:57;;;;;;;1.83;1.73;;;8.90;76.50;;;;;;5050365;28;20032;-59
2022/10/20 11:57:31;;;;;;;1.77;1.67;;;8.90;76.90;;;;;;5056597;28;20029;-60
2022/10/20 12:00:03;;;;;;;1.70;1.60;;;9.00;76.80;;;;;;5044026;28;20789;-60
2022/10/20 12:02:50;;;;;;;1.52;1.42;;;9.00;77.00;;;;;;5047561;28;20485;-60
2022/10/20 12:05:22;;;;;;;1.77;1.50;;;9.00;76.90;;;;;;5045881;28;20833;-59
2022/10/20 12:08:17;;;;;;;1.50;1.40;;;9.00;77.00;;;;;;5055727;28;20115;-61
2022/10/20 12:11:13;;;;;;;1.60;1.60;;;9.10;77.10;;;;;;5050912;28;20029;-60
2022/10/20 12:14:16;;;;;;;2.28;1.88;;;9.10;77.10;;;;;;5053888;28;20055;-59
2022/10/20 12:16:50;;;;;;;1.90;1.80;;;9.10;77.10;;;;;;5050196;28;21009;-60
2022/10/20 12:19:22;;;;;;;1.90;1.80;;;9.00;77.10;;;;;;5052975;28;20145;-59
2022/10/20 12:22:03;;;;;;;2.00;1.90;;;9.00;77.60;;;;;;5053238;28;20060;-58
2022/10/20 12:24:38;;;;;;;1.95;1.85;;;9.00;77.70;;;;;;5049348;28;20021;-60
2022/10/20 12:27:16;;;;;;;2.33;2.13;;;9.10;77.80;;;;;;5049748;28;20041;-59
2022/10/20 12:29:42;;;;;;;1.90;1.80;;;9.10;77.80;;;;;;5041410;28;20448;-60
2022/10/20 12:32:26;;;;;;;2.08;1.85;;;9.10;77.80;;;;;;5043730;28;20031;-60
2022/10/20 12:34:53;;;;;;;1.90;1.80;;;9.10;77.80;;;;;;5046107;28;20098;-59
2022/10/20 12:37:24;;;;;;;2.00;1.90;;;9.10;78.00;;;;;;5052715;28;20039;-60
2022/10/20 12:39:52;;;;;;;1.77;1.67;;;9.10;77.90;;;;;;5047629;28;20722;-60
2022/10/20 12:42:43;;;;;;;1.90;1.80;;;9.10;77.80;;;;;;5054885;28;20120;-60
2022/10/20 12:45:38;;;;;;;1.60;1.50;;;9.10;78.10;;;;;;5051847;28;21950;-60
2022/10/20 12:48:06;;;;;;;1.90;1.80;;;9.10;78.30;;;;;;5047969;28;20511;-60
2022/10/20 12:50:44;;;;;;;1.83;1.52;;;9.10;78.20;;;;;;5047961;28;21281;-60
2022/10/20 12:53:17;;;;;;;1.98;1.88;;;9.10;78.30;;;;;;5052480;28;20971;-60
2022/10/20 12:56:08;;;;;;;1.83;1.73;;;9.10;78.40;;;;;;5054109;28;20510;-59
2022/10/20 12:58:58;;;;;;;1.87;1.77;;;9.10;78.00;;;;;;5052115;28;20139;-59
2022/10/20 13:01:23;;;;;;;1.92;1.83;;;9.10;78.00;;;;;;5053803;28;20241;-60
2022/10/20 13:03:51;;;;;;;1.95;1.80;;;9.10;78.00;;;;;;5056023;28;20111;-59
2022/10/20 13:06:22;;;;;;;2.05;1.80;;;9.20;78.10;;;;;;5048702;28;20029;-59
2022/10/20 13:09:04;;;;;;;1.60;1.52;;;9.20;78.00;;;;;;5056450;28;20139;-59
2022/10/20 13:11:57;;;;;;;2.08;1.95;;;9.20;77.90;;;;;;5049933;28;20044;-59
2022/10/20 13:14:34;;;;;;;1.75;1.65;;;9.30;77.90;;;;;;5043513;28;20040;-60